sensor_id;sensor_type;location;lat;lon;timestamp;P1;durP1;ratioP1;P2;durP2;ratioP2
20142;SDS011;10509;46.476;7.134;2022-08-19T00:01:09;7.63;;;7.23;;
20142;SDS011;10509;46.476;7.134;2022-08-19T00:03:35;7.80;;;7.40;;
20142;SDS011;10509;46.476;7.134;2022-08-19T00:06:01;7.83;;;7.43;;
20142;SDS011;10509;46.476;7.134;2022-08-19T00:08:28;7.63;;;7.23;;
20142;SDS011;10509;46.476;7.134;2022-08-19T00:10:54;8.07;;;7.63;;
20142;SDS011;10509;46.476;7.134;2022-08-19T00:13:20;8.60;;;7.83;;
20142;SDS011;10509;46.476;7.134;2022-08-19T00:15:46;8.67;;;8.17;;
20142;SDS011;10509;46.476;7.134;2022-08-19T00:18:12;8.17;;;7.67;;
20142;SDS011;10509;46.476;7.134;2022-08-19T00:20:38;7.73;;;7.33;;
20142;SDS011;10509;46.476;7.134;2022-08-19T00:23:05;8.83;;;8.33;;
20142;SDS011;10509;46.476;7.134;2022-08-19T00:25:31;8.30;;;7.80;;
20142;SDS011;10509;46.476;7.134;2022-08-19T00:27:58;8.00;;;7.60;;
20142;SDS011;10509;46.476;7.134;2022-08-19T00:30:25;8.57;;;8.07;;
20142;SDS011;10509;46.476;7.134;2022-08-19T00:32:52;8.40;;;8.00;;
20142;SDS011;10509;46.476;7.134;2022-08-19T00:35:20;8.07;;;7.67;;
20142;SDS011;10509;46.476;7.134;2022-08-19T00:37:47;7.97;;;7.57;;
20142;SDS011;10509;46.476;7.134;2022-08-19T00:40:13;8.50;;;8.00;;
20142;SDS011;10509;46.476;7.134;2022-08-19T00:42:40;8.50;;;8.00;;
20142;SDS011;10509;46.476;7.134;2022-08-19T00:45:13;8.60;;;8.10;;
20142;SDS011;10509;46.476;7.134;2022-08-19T00:47:42;8.33;;;7.87;;
20142;SDS011;10509;46.476;7.134;2022-08-19T00:50:08;8.37;;;7.87;;
20142;SDS011;10509;46.476;7.134;2022-08-19T00:52:36;8.50;;;8.00;;
20142;SDS011;10509;46.476;7.134;2022-08-19T00:55:04;8.20;;;7.70;;
20142;SDS011;10509;46.476;7.134;2022-08-19T00:57:35;8.53;;;8.03;;
20142;SDS011;10509;46.476;7.134;2022-08-19T01:00:05;8.67;;;7.97;;
20142;SDS011;10509;46.476;7.134;2022-08-19T01:02:32;8.07;;;7.67;;
20142;SDS011;10509;46.476;7.134;2022-08-19T01:04:59;7.90;;;7.40;;
20142;SDS011;10509;46.476;7.134;2022-08-19T01:07:25;9.23;;;8.70;;
20142;SDS011;10509;46.476;7.134;2022-08-19T01:09:51;8.57;;;7.97;;
20142;SDS011;10509;46.476;7.134;2022-08-19T01:12:18;8.67;;;8.27;;
20142;SDS011;10509;46.476;7.134;2022-08-19T01:14:44;8.40;;;8.00;;
20142;SDS011;10509;46.476;7.134;2022-08-19T01:17:10;8.87;;;8.37;;
20142;SDS011;10509;46.476;7.134;2022-08-19T01:19:37;9.03;;;8.53;;
20142;SDS011;10509;46.476;7.134;2022-08-19T01:24:48;10.00;;;9.30;;
20142;SDS011;10509;46.476;7.134;2022-08-19T01:27:15;9.50;;;9.00;;
20142;SDS011;10509;46.476;7.134;2022-08-19T01:29:41;9.23;;;8.73;;
20142;SDS011;10509;46.476;7.134;2022-08-19T01:32:11;9.00;;;8.50;;
20142;SDS011;10509;46.476;7.134;2022-08-19T01:34:38;9.50;;;8.80;;
20142;SDS011;10509;46.476;7.134;2022-08-19T01:37:08;9.40;;;8.57;;
20142;SDS011;10509;46.476;7.134;2022-08-19T01:39:36;9.57;;;9.00;;
20142;SDS011;10509;46.476;7.134;2022-08-19T01:42:03;9.13;;;8.73;;
20142;SDS011;10509;46.476;7.134;2022-08-19T01:44:29;10.07;;;9.47;;
20142;SDS011;10509;46.476;7.134;2022-08-19T01:46:55;9.77;;;9.17;;
20142;SDS011;10509;46.476;7.134;2022-08-19T01:49:22;9.73;;;9.23;;
20142;SDS011;10509;46.476;7.134;2022-08-19T01:51:50;9.63;;;9.13;;
20142;SDS011;10509;46.476;7.134;2022-08-19T01:54:17;8.83;;;8.33;;
20142;SDS011;10509;46.476;7.134;2022-08-19T01:56:43;9.23;;;8.73;;
20142;SDS011;10509;46.476;7.134;2022-08-19T01:59:14;8.97;;;8.47;;
20142;SDS011;10509;46.476;7.134;2022-08-19T02:01:41;9.63;;;9.07;;
20142;SDS011;10509;46.476;7.134;2022-08-19T02:04:07;9.77;;;9.20;;
20142;SDS011;10509;46.476;7.134;2022-08-19T02:06:33;9.97;;;9.47;;
20142;SDS011;10509;46.476;7.134;2022-08-19T02:08:59;8.87;;;8.40;;
20142;SDS011;10509;46.476;7.134;2022-08-19T02:11:27;5.47;;;5.17;;
20142;SDS011;10509;46.476;7.134;2022-08-19T02:13:56;4.93;;;4.63;;
20142;SDS011;10509;46.476;7.134;2022-08-19T02:16:22;5.37;;;5.07;;
20142;SDS011;10509;46.476;7.134;2022-08-19T02:18:48;4.13;;;3.93;;
20142;SDS011;10509;46.476;7.134;2022-08-19T02:21:15;4.07;;;3.77;;
20142;SDS011;10509;46.476;7.134;2022-08-19T02:23:42;3.63;;;3.43;;
20142;SDS011;10509;46.476;7.134;2022-08-19T02:26:08;3.20;;;2.10;;
20142;SDS011;10509;46.476;7.134;2022-08-19T02:28:34;1.60;;;1.50;;
20142;SDS011;10509;46.476;7.134;2022-08-19T02:31:01;1.73;;;1.63;;
20142;SDS011;10509;46.476;7.134;2022-08-19T02:33:27;1.73;;;1.63;;
20142;SDS011;10509;46.476;7.134;2022-08-19T02:35:53;2.00;;;1.90;;
20142;SDS011;10509;46.476;7.134;2022-08-19T02:38:19;1.77;;;1.67;;
20142;SDS011;10509;46.476;7.134;2022-08-19T02:41:02;1.50;;;1.40;;
20142;SDS011;10509;46.476;7.134;2022-08-19T02:43:29;3.20;;;3.00;;
20142;SDS011;10509;46.476;7.134;2022-08-19T02:45:55;3.70;;;3.50;;
20142;SDS011;10509;46.476;7.134;2022-08-19T02:48:22;4.53;;;3.80;;
20142;SDS011;10509;46.476;7.134;2022-08-19T02:50:50;3.40;;;3.20;;
20142;SDS011;10509;46.476;7.134;2022-08-19T02:53:20;3.77;;;3.57;;
20142;SDS011;10509;46.476;7.134;2022-08-19T02:55:47;5.73;;;5.43;;
20142;SDS011;10509;46.476;7.134;2022-08-19T02:58:14;5.10;;;4.80;;
20142;SDS011;10509;46.476;7.134;2022-08-19T03:00:44;6.40;;;6.00;;
20142;SDS011;10509;46.476;7.134;2022-08-19T03:03:10;4.57;;;4.37;;
20142;SDS011;10509;46.476;7.134;2022-08-19T03:05:36;4.60;;;4.30;;
20142;SDS011;10509;46.476;7.134;2022-08-19T03:08:02;3.37;;;3.17;;
20142;SDS011;10509;46.476;7.134;2022-08-19T03:10:29;4.03;;;3.83;;
20142;SDS011;10509;46.476;7.134;2022-08-19T03:12:55;3.70;;;3.50;;
20142;SDS011;10509;46.476;7.134;2022-08-19T03:15:21;3.87;;;3.57;;
20142;SDS011;10509;46.476;7.134;2022-08-19T03:17:47;3.53;;;3.33;;
20142;SDS011;10509;46.476;7.134;2022-08-19T03:20:13;2.83;;;2.63;;
20142;SDS011;10509;46.476;7.134;2022-08-19T03:22:39;1.93;;;1.83;;
20142;SDS011;10509;46.476;7.134;2022-08-19T03:25:05;3.07;;;2.87;;
20142;SDS011;10509;46.476;7.134;2022-08-19T03:27:31;2.80;;;2.60;;
20142;SDS011;10509;46.476;7.134;2022-08-19T03:38:30;3.90;;;3.60;;
20142;SDS011;10509;46.476;7.134;2022-08-19T03:40:57;3.07;;;2.87;;
20142;SDS011;10509;46.476;7.134;2022-08-19T03:43:23;2.53;;;2.43;;
20142;SDS011;10509;46.476;7.134;2022-08-19T03:45:58;2.60;;;2.10;;
20142;SDS011;10509;46.476;7.134;2022-08-19T03:48:25;1.80;;;1.70;;
20142;SDS011;10509;46.476;7.134;2022-08-19T03:50:50;2.33;;;2.20;;
20142;SDS011;10509;46.476;7.134;2022-08-19T03:53:16;2.50;;;2.30;;
20142;SDS011;10509;46.476;7.134;2022-08-19T03:55:42;2.90;;;2.07;;
20142;SDS011;10509;46.476;7.134;2022-08-19T03:58:09;1.70;;;1.60;;
20142;SDS011;10509;46.476;7.134;2022-08-19T04:00:36;1.83;;;1.57;;
20142;SDS011;10509;46.476;7.134;2022-08-19T04:03:02;2.47;;;2.27;;
20142;SDS011;10509;46.476;7.134;2022-08-19T04:05:28;2.30;;;2.10;;
20142;SDS011;10509;46.476;7.134;2022-08-19T04:07:55;1.80;;;1.70;;
20142;SDS011;10509;46.476;7.134;2022-08-19T04:10:23;1.80;;;1.70;;
20142;SDS011;10509;46.476;7.134;2022-08-19T04:12:49;2.20;;;2.00;;
20142;SDS011;10509;46.476;7.134;2022-08-19T04:15:15;2.50;;;2.30;;
20142;SDS011;10509;46.476;7.134;2022-08-19T04:17:41;2.37;;;2.20;;
20142;SDS011;10509;46.476;7.134;2022-08-19T04:20:07;2.00;;;1.90;;
20142;SDS011;10509;46.476;7.134;2022-08-19T04:22:35;2.07;;;1.97;;
20142;SDS011;10509;46.476;7.134;2022-08-19T04:25:01;1.63;;;1.53;;
20142;SDS011;10509;46.476;7.134;2022-08-19T04:27:27;1.90;;;1.70;;
20142;SDS011;10509;46.476;7.134;2022-08-19T04:29:54;2.23;;;1.87;;
20142;SDS011;10509;46.476;7.134;2022-08-19T04:32:20;2.00;;;1.90;;
20142;SDS011;10509;46.476;7.134;2022-08-19T04:34:47;1.80;;;1.70;;
20142;SDS011;10509;46.476;7.134;2022-08-19T04:37:13;1.87;;;1.77;;
20142;SDS011;10509;46.476;7.134;2022-08-19T04:39:39;3.33;;;1.97;;
20142;SDS011;10509;46.476;7.134;2022-08-19T04:42:24;1.73;;;1.40;;
20142;SDS011;10509;46.476;7.134;2022-08-19T04:45:07;2.60;;;2.40;;
20142;SDS011;10509;46.476;7.134;2022-08-19T04:47:35;2.37;;;2.07;;
20142;SDS011;10509;46.476;7.134;2022-08-19T04:50:02;3.47;;;3.27;;
20142;SDS011;10509;46.476;7.134;2022-08-19T04:52:28;2.37;;;2.17;;
20142;SDS011;10509;46.476;7.134;2022-08-19T04:54:57;2.60;;;2.40;;
20142;SDS011;10509;46.476;7.134;2022-08-19T04:57:23;3.63;;;2.63;;
20142;SDS011;10509;46.476;7.134;2022-08-19T04:59:49;2.13;;;1.90;;
20142;SDS011;10509;46.476;7.134;2022-08-19T05:02:18;2.20;;;2.00;;
20142;SDS011;10509;46.476;7.134;2022-08-19T05:04:44;1.80;;;1.70;;
20142;SDS011;10509;46.476;7.134;2022-08-19T05:07:10;1.87;;;1.77;;
20142;SDS011;10509;46.476;7.134;2022-08-19T05:09:37;2.27;;;2.07;;
20142;SDS011;10509;46.476;7.134;2022-08-19T05:12:03;2.00;;;1.90;;
20142;SDS011;10509;46.476;7.134;2022-08-19T05:14:29;2.17;;;1.97;;
20142;SDS011;10509;46.476;7.134;2022-08-19T05:16:55;2.20;;;2.00;;
20142;SDS011;10509;46.476;7.134;2022-08-19T05:19:21;2.13;;;1.93;;
20142;SDS011;10509;46.476;7.134;2022-08-19T05:22:06;1.83;;;1.73;;
20142;SDS011;10509;46.476;7.134;2022-08-19T05:24:50;1.70;;;1.60;;
20142;SDS011;10509;46.476;7.134;2022-08-19T05:27:16;1.67;;;1.57;;
20142;SDS011;10509;46.476;7.134;2022-08-19T05:29:42;1.77;;;1.67;;
20142;SDS011;10509;46.476;7.134;2022-08-19T05:32:08;2.10;;;1.90;;
20142;SDS011;10509;46.476;7.134;2022-08-19T05:34:35;1.90;;;1.80;;
20142;SDS011;10509;46.476;7.134;2022-08-19T05:37:03;2.17;;;2.03;;
20142;SDS011;10509;46.476;7.134;2022-08-19T05:39:30;2.20;;;2.00;;
20142;SDS011;10509;46.476;7.134;2022-08-19T05:42:03;2.17;;;2.00;;
20142;SDS011;10509;46.476;7.134;2022-08-19T05:44:31;2.23;;;2.07;;
20142;SDS011;10509;46.476;7.134;2022-08-19T05:46:57;2.00;;;1.90;;
20142;SDS011;10509;46.476;7.134;2022-08-19T05:49:25;2.73;;;2.20;;
20142;SDS011;10509;46.476;7.134;2022-08-19T05:51:52;1.97;;;1.87;;
20142;SDS011;10509;46.476;7.134;2022-08-19T05:54:19;1.83;;;1.73;;
20142;SDS011;10509;46.476;7.134;2022-08-19T05:56:46;1.90;;;1.80;;
20142;SDS011;10509;46.476;7.134;2022-08-19T05:59:13;1.60;;;1.50;;
20142;SDS011;10509;46.476;7.134;2022-08-19T06:01:40;1.70;;;1.60;;
20142;SDS011;10509;46.476;7.134;2022-08-19T06:04:06;1.70;;;1.60;;
20142;SDS011;10509;46.476;7.134;2022-08-19T06:06:33;1.30;;;1.20;;
20142;SDS011;10509;46.476;7.134;2022-08-19T06:09:03;1.07;;;0.97;;
20142;SDS011;10509;46.476;7.134;2022-08-19T06:14:00;1.33;;;1.23;;
20142;SDS011;10509;46.476;7.134;2022-08-19T06:16:26;1.10;;;0.90;;
20142;SDS011;10509;46.476;7.134;2022-08-19T06:18:53;1.83;;;0.90;;
20142;SDS011;10509;46.476;7.134;2022-08-19T06:21:20;0.77;;;0.77;;
20142;SDS011;10509;46.476;7.134;2022-08-19T06:23:47;1.23;;;0.87;;
20142;SDS011;10509;46.476;7.134;2022-08-19T06:26:14;1.30;;;1.20;;
20142;SDS011;10509;46.476;7.134;2022-08-19T06:28:40;1.13;;;0.90;;
20142;SDS011;10509;46.476;7.134;2022-08-19T06:31:10;1.03;;;0.80;;
20142;SDS011;10509;46.476;7.134;2022-08-19T06:33:38;0.83;;;0.83;;
20142;SDS011;10509;46.476;7.134;2022-08-19T06:36:04;0.77;;;0.70;;
20142;SDS011;10509;46.476;7.134;2022-08-19T06:38:31;0.80;;;0.80;;
20142;SDS011;10509;46.476;7.134;2022-08-19T06:41:02;0.70;;;0.70;;
20142;SDS011;10509;46.476;7.134;2022-08-19T06:43:28;1.10;;;0.70;;
20142;SDS011;10509;46.476;7.134;2022-08-19T06:45:54;0.97;;;0.70;;
20142;SDS011;10509;46.476;7.134;2022-08-19T06:48:20;0.87;;;0.63;;
20142;SDS011;10509;46.476;7.134;2022-08-19T06:50:46;0.70;;;0.70;;
20142;SDS011;10509;46.476;7.134;2022-08-19T06:53:14;0.50;;;0.50;;
20142;SDS011;10509;46.476;7.134;2022-08-19T06:55:40;0.60;;;0.57;;
20142;SDS011;10509;46.476;7.134;2022-08-19T06:58:06;1.30;;;1.00;;
20142;SDS011;10509;46.476;7.134;2022-08-19T07:00:34;1.00;;;0.90;;
20142;SDS011;10509;46.476;7.134;2022-08-19T07:03:01;0.90;;;0.90;;
20142;SDS011;10509;46.476;7.134;2022-08-19T07:05:27;1.43;;;1.20;;
20142;SDS011;10509;46.476;7.134;2022-08-19T07:07:53;0.97;;;0.93;;
20142;SDS011;10509;46.476;7.134;2022-08-19T07:10:19;1.10;;;0.93;;
20142;SDS011;10509;46.476;7.134;2022-08-19T07:12:46;0.80;;;0.80;;
20142;SDS011;10509;46.476;7.134;2022-08-19T07:15:13;0.80;;;0.80;;
20142;SDS011;10509;46.476;7.134;2022-08-19T07:17:40;1.00;;;0.90;;
20142;SDS011;10509;46.476;7.134;2022-08-19T07:20:08;0.97;;;0.97;;
20142;SDS011;10509;46.476;7.134;2022-08-19T07:22:34;1.00;;;0.90;;
20142;SDS011;10509;46.476;7.134;2022-08-19T07:25:00;1.07;;;1.00;;
20142;SDS011;10509;46.476;7.134;2022-08-19T07:27:28;1.20;;;1.00;;
20142;SDS011;10509;46.476;7.134;2022-08-19T07:29:54;2.13;;;1.50;;
20142;SDS011;10509;46.476;7.134;2022-08-19T07:32:20;1.77;;;1.20;;
20142;SDS011;10509;46.476;7.134;2022-08-19T07:34:46;1.97;;;1.30;;
20142;SDS011;10509;46.476;7.134;2022-08-19T07:37:12;1.83;;;1.23;;
20142;SDS011;10509;46.476;7.134;2022-08-19T07:39:39;1.53;;;1.43;;
20142;SDS011;10509;46.476;7.134;2022-08-19T07:42:06;1.30;;;1.20;;
20142;SDS011;10509;46.476;7.134;2022-08-19T07:44:33;1.80;;;1.40;;
20142;SDS011;10509;46.476;7.134;2022-08-19T07:47:00;1.83;;;1.70;;
20142;SDS011;10509;46.476;7.134;2022-08-19T07:49:26;2.07;;;1.77;;
20142;SDS011;10509;46.476;7.134;2022-08-19T07:52:01;2.27;;;2.07;;
20142;SDS011;10509;46.476;7.134;2022-08-19T07:54:28;1.63;;;1.53;;
20142;SDS011;10509;46.476;7.134;2022-08-19T07:56:55;2.10;;;2.00;;
20142;SDS011;10509;46.476;7.134;2022-08-19T07:59:22;2.53;;;2.43;;
20142;SDS011;10509;46.476;7.134;2022-08-19T08:01:48;3.00;;;2.80;;
20142;SDS011;10509;46.476;7.134;2022-08-19T08:04:15;3.90;;;3.60;;
20142;SDS011;10509;46.476;7.134;2022-08-19T08:07:00;3.40;;;3.00;;
20142;SDS011;10509;46.476;7.134;2022-08-19T08:09:45;3.17;;;2.93;;
20142;SDS011;10509;46.476;7.134;2022-08-19T08:12:19;2.97;;;2.77;;
20142;SDS011;10509;46.476;7.134;2022-08-19T08:14:51;3.53;;;3.30;;
20142;SDS011;10509;46.476;7.134;2022-08-19T08:17:19;2.80;;;2.60;;
20142;SDS011;10509;46.476;7.134;2022-08-19T08:19:46;3.43;;;3.13;;
20142;SDS011;10509;46.476;7.134;2022-08-19T08:22:14;2.60;;;2.50;;
20142;SDS011;10509;46.476;7.134;2022-08-19T08:25:06;4.07;;;3.80;;
20142;SDS011;10509;46.476;7.134;2022-08-19T08:27:37;4.07;;;3.77;;
20142;SDS011;10509;46.476;7.134;2022-08-19T08:30:05;2.87;;;2.67;;
20142;SDS011;10509;46.476;7.134;2022-08-19T08:32:35;2.93;;;2.67;;
20142;SDS011;10509;46.476;7.134;2022-08-19T08:35:02;3.60;;;3.30;;
20142;SDS011;10509;46.476;7.134;2022-08-19T08:37:28;3.50;;;3.30;;
20142;SDS011;10509;46.476;7.134;2022-08-19T08:39:54;4.00;;;3.60;;
20142;SDS011;10509;46.476;7.134;2022-08-19T08:42:22;3.93;;;3.67;;
20142;SDS011;10509;46.476;7.134;2022-08-19T08:47:17;4.13;;;3.83;;
20142;SDS011;10509;46.476;7.134;2022-08-19T08:49:57;5.30;;;4.90;;
20142;SDS011;10509;46.476;7.134;2022-08-19T08:54:51;4.43;;;4.13;;
20142;SDS011;10509;46.476;7.134;2022-08-19T08:59:53;5.23;;;4.83;;
20142;SDS011;10509;46.476;7.134;2022-08-19T09:02:21;5.37;;;4.83;;
20142;SDS011;10509;46.476;7.134;2022-08-19T09:04:48;7.00;;;6.50;;
20142;SDS011;10509;46.476;7.134;2022-08-19T09:09:43;5.40;;;5.00;;
20142;SDS011;10509;46.476;7.134;2022-08-19T09:14:43;4.23;;;3.93;;
20142;SDS011;10509;46.476;7.134;2022-08-19T09:17:12;4.50;;;4.20;;
20142;SDS011;10509;46.476;7.134;2022-08-19T09:19:55;5.20;;;4.90;;
20142;SDS011;10509;46.476;7.134;2022-08-19T09:22:21;6.13;;;4.60;;
20142;SDS011;10509;46.476;7.134;2022-08-19T09:24:51;5.60;;;4.00;;
20142;SDS011;10509;46.476;7.134;2022-08-19T09:27:17;4.10;;;3.80;;
20142;SDS011;10509;46.476;7.134;2022-08-19T09:29:43;4.73;;;4.33;;
20142;SDS011;10509;46.476;7.134;2022-08-19T09:32:09;4.50;;;4.10;;
20142;SDS011;10509;46.476;7.134;2022-08-19T09:34:36;4.77;;;4.37;;
20142;SDS011;10509;46.476;7.134;2022-08-19T09:37:02;4.30;;;4.00;;
20142;SDS011;10509;46.476;7.134;2022-08-19T09:39:28;4.93;;;4.50;;
20142;SDS011;10509;46.476;7.134;2022-08-19T09:41:55;3.93;;;3.63;;
20142;SDS011;10509;46.476;7.134;2022-08-19T09:44:21;4.00;;;3.70;;
20142;SDS011;10509;46.476;7.134;2022-08-19T09:46:48;3.03;;;2.83;;
20142;SDS011;10509;46.476;7.134;2022-08-19T09:49:18;3.47;;;3.27;;
20142;SDS011;10509;46.476;7.134;2022-08-19T09:51:48;4.30;;;4.00;;
20142;SDS011;10509;46.476;7.134;2022-08-19T09:54:15;4.23;;;3.93;;
20142;SDS011;10509;46.476;7.134;2022-08-19T09:56:41;3.93;;;3.60;;
20142;SDS011;10509;46.476;7.134;2022-08-19T09:59:07;4.13;;;3.70;;
20142;SDS011;10509;46.476;7.134;2022-08-19T10:01:35;4.43;;;3.53;;
20142;SDS011;10509;46.476;7.134;2022-08-19T10:04:01;4.77;;;3.60;;
20142;SDS011;10509;46.476;7.134;2022-08-19T10:06:29;4.13;;;3.77;;
20142;SDS011;10509;46.476;7.134;2022-08-19T10:08:58;3.90;;;3.60;;
20142;SDS011;10509;46.476;7.134;2022-08-19T10:11:24;3.47;;;3.10;;
20142;SDS011;10509;46.476;7.134;2022-08-19T10:13:51;3.87;;;3.57;;
20142;SDS011;10509;46.476;7.134;2022-08-19T10:16:19;3.57;;;3.37;;
20142;SDS011;10509;46.476;7.134;2022-08-19T10:18:47;3.60;;;3.37;;
20142;SDS011;10509;46.476;7.134;2022-08-19T10:21:15;3.63;;;3.40;;
20142;SDS011;10509;46.476;7.134;2022-08-19T10:23:43;4.20;;;3.90;;
20142;SDS011;10509;46.476;7.134;2022-08-19T10:26:14;3.53;;;3.27;;
20142;SDS011;10509;46.476;7.134;2022-08-19T10:28:40;3.77;;;3.47;;
20142;SDS011;10509;46.476;7.134;2022-08-19T10:31:11;4.13;;;3.83;;
20142;SDS011;10509;46.476;7.134;2022-08-19T10:33:38;3.90;;;3.60;;
20142;SDS011;10509;46.476;7.134;2022-08-19T10:36:06;4.00;;;3.70;;
20142;SDS011;10509;46.476;7.134;2022-08-19T10:38:33;3.77;;;3.47;;
20142;SDS011;10509;46.476;7.134;2022-08-19T10:41:06;3.77;;;3.50;;
20142;SDS011;10509;46.476;7.134;2022-08-19T10:43:32;4.00;;;3.70;;
20142;SDS011;10509;46.476;7.134;2022-08-19T10:46:02;3.10;;;2.80;;
20142;SDS011;10509;46.476;7.134;2022-08-19T10:48:28;3.50;;;3.30;;
20142;SDS011;10509;46.476;7.134;2022-08-19T10:50:54;4.37;;;4.03;;
20142;SDS011;10509;46.476;7.134;2022-08-19T10:53:41;3.87;;;3.63;;
20142;SDS011;10509;46.476;7.134;2022-08-19T10:56:07;4.50;;;4.20;;
20142;SDS011;10509;46.476;7.134;2022-08-19T10:58:52;4.20;;;3.80;;
20142;SDS011;10509;46.476;7.134;2022-08-19T11:01:18;3.50;;;3.20;;
20142;SDS011;10509;46.476;7.134;2022-08-19T11:03:44;3.40;;;3.20;;
20142;SDS011;10509;46.476;7.134;2022-08-19T11:06:10;3.80;;;3.50;;
20142;SDS011;10509;46.476;7.134;2022-08-19T11:08:37;4.03;;;3.33;;
20142;SDS011;10509;46.476;7.134;2022-08-19T11:11:03;3.50;;;3.30;;
20142;SDS011;10509;46.476;7.134;2022-08-19T11:13:30;3.90;;;3.70;;
20142;SDS011;10509;46.476;7.134;2022-08-19T11:18:24;4.23;;;4.03;;
20142;SDS011;10509;46.476;7.134;2022-08-19T11:20:50;4.67;;;4.37;;
20142;SDS011;10509;46.476;7.134;2022-08-19T11:23:16;4.80;;;4.40;;
20142;SDS011;10509;46.476;7.134;2022-08-19T11:25:42;4.90;;;4.60;;
20142;SDS011;10509;46.476;7.134;2022-08-19T11:28:10;5.37;;;5.07;;
20142;SDS011;10509;46.476;7.134;2022-08-19T11:30:37;5.53;;;5.20;;
20142;SDS011;10509;46.476;7.134;2022-08-19T11:33:03;5.23;;;4.83;;
20142;SDS011;10509;46.476;7.134;2022-08-19T11:35:29;5.70;;;5.20;;
20142;SDS011;10509;46.476;7.134;2022-08-19T11:37:55;5.27;;;4.87;;
20142;SDS011;10509;46.476;7.134;2022-08-19T11:40:26;5.03;;;4.73;;
20142;SDS011;10509;46.476;7.134;2022-08-19T11:42:52;5.10;;;4.80;;
20142;SDS011;10509;46.476;7.134;2022-08-19T11:45:24;4.40;;;4.10;;
20142;SDS011;10509;46.476;7.134;2022-08-19T11:47:52;4.40;;;4.20;;
20142;SDS011;10509;46.476;7.134;2022-08-19T11:50:18;4.57;;;4.27;;
20142;SDS011;10509;46.476;7.134;2022-08-19T11:52:44;4.60;;;4.30;;
20142;SDS011;10509;46.476;7.134;2022-08-19T11:55:11;4.80;;;4.50;;
20142;SDS011;10509;46.476;7.134;2022-08-19T11:57:38;4.97;;;4.67;;
20142;SDS011;10509;46.476;7.134;2022-08-19T12:00:06;5.43;;;5.13;;
20142;SDS011;10509;46.476;7.134;2022-08-19T12:02:32;6.10;;;5.73;;
20142;SDS011;10509;46.476;7.134;2022-08-19T12:04:58;4.83;;;4.53;;
20142;SDS011;10509;46.476;7.134;2022-08-19T12:07:27;5.87;;;5.47;;
20142;SDS011;10509;46.476;7.134;2022-08-19T12:09:54;5.27;;;4.87;;
20142;SDS011;10509;46.476;7.134;2022-08-19T12:12:20;7.50;;;6.97;;
20142;SDS011;10509;46.476;7.134;2022-08-19T12:14:46;7.13;;;6.57;;
20142;SDS011;10509;46.476;7.134;2022-08-19T12:17:12;8.53;;;7.83;;
20142;SDS011;10509;46.476;7.134;2022-08-19T12:19:38;7.60;;;7.00;;
20142;SDS011;10509;46.476;7.134;2022-08-19T12:22:04;7.50;;;6.40;;
20142;SDS011;10509;46.476;7.134;2022-08-19T12:24:32;7.00;;;6.53;;
20142;SDS011;10509;46.476;7.134;2022-08-19T12:26:59;6.63;;;6.20;;
20142;SDS011;10509;46.476;7.134;2022-08-19T12:29:26;7.30;;;6.80;;
20142;SDS011;10509;46.476;7.134;2022-08-19T12:31:54;7.03;;;6.63;;
20142;SDS011;10509;46.476;7.134;2022-08-19T12:34:27;8.50;;;8.00;;
20142;SDS011;10509;46.476;7.134;2022-08-19T12:36:55;9.10;;;8.60;;
20142;SDS011;10509;46.476;7.134;2022-08-19T12:39:21;9.00;;;8.47;;
20142;SDS011;10509;46.476;7.134;2022-08-19T12:41:47;9.63;;;9.03;;
20142;SDS011;10509;46.476;7.134;2022-08-19T12:44:13;10.30;;;9.70;;
20142;SDS011;10509;46.476;7.134;2022-08-19T12:46:39;11.57;;;10.67;;
20142;SDS011;10509;46.476;7.134;2022-08-19T12:49:05;10.80;;;10.20;;
20142;SDS011;10509;46.476;7.134;2022-08-19T12:51:31;8.30;;;7.80;;
20142;SDS011;10509;46.476;7.134;2022-08-19T12:53:58;8.70;;;8.20;;
20142;SDS011;10509;46.476;7.134;2022-08-19T12:56:26;9.30;;;8.80;;
20142;SDS011;10509;46.476;7.134;2022-08-19T12:58:52;9.07;;;8.57;;
20142;SDS011;10509;46.476;7.134;2022-08-19T13:01:19;9.03;;;8.53;;
20142;SDS011;10509;46.476;7.134;2022-08-19T13:03:46;9.93;;;9.33;;
20142;SDS011;10509;46.476;7.134;2022-08-19T13:06:12;10.60;;;10.00;;
20142;SDS011;10509;46.476;7.134;2022-08-19T13:08:38;9.67;;;9.07;;
20142;SDS011;10509;46.476;7.134;2022-08-19T13:11:13;10.43;;;9.83;;
20142;SDS011;10509;46.476;7.134;2022-08-19T13:13:40;10.60;;;10.00;;
20142;SDS011;10509;46.476;7.134;2022-08-19T13:16:07;11.40;;;10.70;;
20142;SDS011;10509;46.476;7.134;2022-08-19T13:18:33;11.57;;;10.87;;
20142;SDS011;10509;46.476;7.134;2022-08-19T13:21:03;11.03;;;10.33;;
20142;SDS011;10509;46.476;7.134;2022-08-19T13:23:29;11.63;;;10.93;;
20142;SDS011;10509;46.476;7.134;2022-08-19T13:25:56;11.43;;;10.53;;
20142;SDS011;10509;46.476;7.134;2022-08-19T13:28:23;11.07;;;10.43;;
20142;SDS011;10509;46.476;7.134;2022-08-19T13:30:49;11.93;;;11.27;;
20142;SDS011;10509;46.476;7.134;2022-08-19T13:33:33;11.10;;;10.50;;
20142;SDS011;10509;46.476;7.134;2022-08-19T13:36:00;12.07;;;11.40;;
20142;SDS011;10509;46.476;7.134;2022-08-19T13:38:26;12.40;;;11.80;;
20142;SDS011;10509;46.476;7.134;2022-08-19T13:40:53;12.40;;;11.70;;
20142;SDS011;10509;46.476;7.134;2022-08-19T13:43:21;12.43;;;11.73;;
20142;SDS011;10509;46.476;7.134;2022-08-19T13:45:47;12.97;;;12.27;;
20142;SDS011;10509;46.476;7.134;2022-08-19T13:48:13;12.20;;;11.40;;
20142;SDS011;10509;46.476;7.134;2022-08-19T13:50:41;11.07;;;10.47;;
20142;SDS011;10509;46.476;7.134;2022-08-19T13:53:08;12.40;;;11.70;;
20142;SDS011;10509;46.476;7.134;2022-08-19T13:55:34;12.83;;;11.70;;
20142;SDS011;10509;46.476;7.134;2022-08-19T13:58:01;13.93;;;13.10;;
20142;SDS011;10509;46.476;7.134;2022-08-19T14:00:28;12.57;;;11.87;;
20142;SDS011;10509;46.476;7.134;2022-08-19T14:02:56;13.23;;;12.53;;
20142;SDS011;10509;46.476;7.134;2022-08-19T14:05:22;12.20;;;11.43;;
20142;SDS011;10509;46.476;7.134;2022-08-19T14:07:49;12.20;;;11.50;;
20142;SDS011;10509;46.476;7.134;2022-08-19T14:10:16;11.93;;;11.23;;
20142;SDS011;10509;46.476;7.134;2022-08-19T14:12:42;13.97;;;13.17;;
20142;SDS011;10509;46.476;7.134;2022-08-19T14:15:09;13.30;;;12.50;;
20142;SDS011;10509;46.476;7.134;2022-08-19T14:17:37;12.83;;;12.13;;
20142;SDS011;10509;46.476;7.134;2022-08-19T14:20:05;13.70;;;12.87;;
20142;SDS011;10509;46.476;7.134;2022-08-19T14:22:37;13.27;;;12.57;;
20142;SDS011;10509;46.476;7.134;2022-08-19T14:25:04;11.73;;;10.83;;
20142;SDS011;10509;46.476;7.134;2022-08-19T14:27:33;13.30;;;12.60;;
20142;SDS011;10509;46.476;7.134;2022-08-19T14:29:59;12.43;;;11.73;;
20142;SDS011;10509;46.476;7.134;2022-08-19T14:32:25;11.60;;;10.90;;
20142;SDS011;10509;46.476;7.134;2022-08-19T14:34:51;13.20;;;12.50;;
20142;SDS011;10509;46.476;7.134;2022-08-19T14:37:18;13.90;;;13.10;;
20142;SDS011;10509;46.476;7.134;2022-08-19T14:39:44;13.80;;;13.00;;
20142;SDS011;10509;46.476;7.134;2022-08-19T14:42:10;13.40;;;12.70;;
20142;SDS011;10509;46.476;7.134;2022-08-19T14:44:39;12.97;;;12.27;;
20142;SDS011;10509;46.476;7.134;2022-08-19T14:47:05;12.77;;;11.97;;
20142;SDS011;10509;46.476;7.134;2022-08-19T14:49:32;12.70;;;11.90;;
20142;SDS011;10509;46.476;7.134;2022-08-19T14:51:58;12.20;;;11.10;;
20142;SDS011;10509;46.476;7.134;2022-08-19T14:54:24;11.97;;;11.37;;
20142;SDS011;10509;46.476;7.134;2022-08-19T14:56:50;10.80;;;10.27;;
20142;SDS011;10509;46.476;7.134;2022-08-19T14:59:16;11.57;;;10.93;;
20142;SDS011;10509;46.476;7.134;2022-08-19T15:01:42;12.00;;;11.10;;
20142;SDS011;10509;46.476;7.134;2022-08-19T15:04:08;11.47;;;10.83;;
20142;SDS011;10509;46.476;7.134;2022-08-19T15:06:34;11.93;;;11.23;;
20142;SDS011;10509;46.476;7.134;2022-08-19T15:09:01;12.47;;;11.77;;
20142;SDS011;10509;46.476;7.134;2022-08-19T15:11:28;11.17;;;10.47;;
20142;SDS011;10509;46.476;7.134;2022-08-19T15:13:56;11.60;;;11.00;;